sensor_id;sensor_type;location;lat;lon;timestamp;P1;durP1;ratioP1;P2;durP2;ratioP2
16826;SDS011;8530;49.540;8.576;2023-09-08T00:00:57;12.00;;;5.77;;
16826;SDS011;8530;49.540;8.576;2023-09-08T00:03:24;8.57;;;6.80;;
16826;SDS011;8530;49.540;8.576;2023-09-08T00:05:51;8.77;;;7.87;;
16826;SDS011;8530;49.540;8.576;2023-09-08T00:08:17;7.93;;;6.73;;
16826;SDS011;8530;49.540;8.576;2023-09-08T00:10:45;10.33;;;7.03;;
16826;SDS011;8530;49.540;8.576;2023-09-08T00:13:12;7.97;;;6.87;;
16826;SDS011;8530;49.540;8.576;2023-09-08T00:15:39;8.50;;;7.07;;
16826;SDS011;8530;49.540;8.576;2023-09-08T00:18:06;10.47;;;7.30;;
16826;SDS011;8530;49.540;8.576;2023-09-08T00:20:32;7.37;;;6.70;;
16826;SDS011;8530;49.540;8.576;2023-09-08T00:22:59;11.57;;;7.53;;
16826;SDS011;8530;49.540;8.576;2023-09-08T00:25:26;12.43;;;7.67;;
16826;SDS011;8530;49.540;8.576;2023-09-08T00:27:54;9.67;;;7.03;;
16826;SDS011;8530;49.540;8.576;2023-09-08T00:30:21;9.33;;;7.70;;
16826;SDS011;8530;49.540;8.576;2023-09-08T00:32:47;8.43;;;7.60;;
16826;SDS011;8530;49.540;8.576;2023-09-08T00:35:14;7.40;;;6.27;;
16826;SDS011;8530;49.540;8.576;2023-09-08T00:37:41;9.93;;;8.17;;
16826;SDS011;8530;49.540;8.576;2023-09-08T00:40:08;8.63;;;7.73;;
16826;SDS011;8530;49.540;8.576;2023-09-08T00:42:35;7.03;;;6.30;;
16826;SDS011;8530;49.540;8.576;2023-09-08T00:45:04;10.43;;;7.93;;
16826;SDS011;8530;49.540;8.576;2023-09-08T00:47:32;7.70;;;6.57;;
16826;SDS011;8530;49.540;8.576;2023-09-08T00:49:59;7.40;;;6.70;;
16826;SDS011;8530;49.540;8.576;2023-09-08T00:52:27;7.73;;;7.03;;
16826;SDS011;8530;49.540;8.576;2023-09-08T00:54:57;11.10;;;7.50;;
16826;SDS011;8530;49.540;8.576;2023-09-08T00:57:24;8.90;;;8.00;;
16826;SDS011;8530;49.540;8.576;2023-09-08T00:59:52;8.10;;;6.00;;
16826;SDS011;8530;49.540;8.576;2023-09-08T01:02:21;12.70;;;9.07;;
16826;SDS011;8530;49.540;8.576;2023-09-08T01:04:48;9.13;;;7.40;;
16826;SDS011;8530;49.540;8.576;2023-09-08T01:07:15;9.27;;;7.00;;
16826;SDS011;8530;49.540;8.576;2023-09-08T01:09:45;11.93;;;7.30;;
16826;SDS011;8530;49.540;8.576;2023-09-08T01:12:13;8.33;;;7.50;;
16826;SDS011;8530;49.540;8.576;2023-09-08T01:17:27;7.83;;;6.97;;
16826;SDS011;8530;49.540;8.576;2023-09-08T01:19:55;10.03;;;6.97;;
16826;SDS011;8530;49.540;8.576;2023-09-08T01:22:29;10.23;;;7.67;;
16826;SDS011;8530;49.540;8.576;2023-09-08T01:25:19;9.67;;;8.47;;
16826;SDS011;8530;49.540;8.576;2023-09-08T01:27:48;8.27;;;7.47;;
16826;SDS011;8530;49.540;8.576;2023-09-08T01:30:16;7.50;;;6.53;;
16826;SDS011;8530;49.540;8.576;2023-09-08T01:32:44;11.43;;;8.37;;
16826;SDS011;8530;49.540;8.576;2023-09-08T01:35:12;7.03;;;6.33;;
16826;SDS011;8530;49.540;8.576;2023-09-08T01:37:39;8.23;;;7.23;;
16826;SDS011;8530;49.540;8.576;2023-09-08T01:40:08;9.03;;;7.63;;
16826;SDS011;8530;49.540;8.576;2023-09-08T01:42:40;8.67;;;7.77;;
16826;SDS011;8530;49.540;8.576;2023-09-08T01:45:07;8.80;;;7.93;;
16826;SDS011;8530;49.540;8.576;2023-09-08T01:47:34;9.20;;;7.70;;
16826;SDS011;8530;49.540;8.576;2023-09-08T01:50:01;8.43;;;7.47;;
16826;SDS011;8530;49.540;8.576;2023-09-08T01:52:28;8.47;;;7.63;;
16826;SDS011;8530;49.540;8.576;2023-09-08T01:54:55;9.97;;;8.97;;
16826;SDS011;8530;49.540;8.576;2023-09-08T01:57:22;10.13;;;8.10;;
16826;SDS011;8530;49.540;8.576;2023-09-08T01:59:50;10.20;;;8.67;;
16826;SDS011;8530;49.540;8.576;2023-09-08T02:02:16;8.90;;;7.73;;
16826;SDS011;8530;49.540;8.576;2023-09-08T02:04:44;15.43;;;8.40;;
16826;SDS011;8530;49.540;8.576;2023-09-08T02:07:11;9.80;;;7.20;;
16826;SDS011;8530;49.540;8.576;2023-09-08T02:09:38;17.70;;;7.70;;
16826;SDS011;8530;49.540;8.576;2023-09-08T02:12:05;10.43;;;8.00;;
16826;SDS011;8530;49.540;8.576;2023-09-08T02:14:32;9.43;;;8.43;;
16826;SDS011;8530;49.540;8.576;2023-09-08T02:17:00;11.70;;;8.77;;
16826;SDS011;8530;49.540;8.576;2023-09-08T02:19:27;18.40;;;9.37;;
16826;SDS011;8530;49.540;8.576;2023-09-08T02:21:54;9.77;;;7.73;;
16826;SDS011;8530;49.540;8.576;2023-09-08T02:24:20;9.30;;;8.07;;
16826;SDS011;8530;49.540;8.576;2023-09-08T02:26:47;9.07;;;8.17;;
16826;SDS011;8530;49.540;8.576;2023-09-08T02:29:14;8.50;;;7.70;;
16826;SDS011;8530;49.540;8.576;2023-09-08T02:31:40;13.17;;;8.80;;
16826;SDS011;8530;49.540;8.576;2023-09-08T02:34:09;11.33;;;9.50;;
16826;SDS011;8530;49.540;8.576;2023-09-08T02:36:37;9.50;;;8.60;;
16826;SDS011;8530;49.540;8.576;2023-09-08T02:39:03;11.63;;;10.43;;
16826;SDS011;8530;49.540;8.576;2023-09-08T02:41:32;10.80;;;9.77;;
16826;SDS011;8530;49.540;8.576;2023-09-08T02:43:58;14.90;;;10.63;;
16826;SDS011;8530;49.540;8.576;2023-09-08T02:46:25;11.93;;;9.90;;
16826;SDS011;8530;49.540;8.576;2023-09-08T02:48:52;12.27;;;10.33;;
16826;SDS011;8530;49.540;8.576;2023-09-08T02:51:20;12.90;;;11.63;;
16826;SDS011;8530;49.540;8.576;2023-09-08T02:53:47;15.20;;;10.37;;
16826;SDS011;8530;49.540;8.576;2023-09-08T02:56:14;13.20;;;11.03;;
16826;SDS011;8530;49.540;8.576;2023-09-08T02:58:40;11.37;;;10.17;;
16826;SDS011;8530;49.540;8.576;2023-09-08T03:01:10;12.23;;;10.67;;
16826;SDS011;8530;49.540;8.576;2023-09-08T03:03:39;16.00;;;11.20;;
16826;SDS011;8530;49.540;8.576;2023-09-08T03:06:06;13.23;;;11.77;;
16826;SDS011;8530;49.540;8.576;2023-09-08T03:08:34;12.03;;;10.73;;
16826;SDS011;8530;49.540;8.576;2023-09-08T03:11:02;14.23;;;12.73;;
16826;SDS011;8530;49.540;8.576;2023-09-08T03:13:30;13.23;;;11.40;;
16826;SDS011;8530;49.540;8.576;2023-09-08T03:15:57;13.10;;;11.20;;
16826;SDS011;8530;49.540;8.576;2023-09-08T03:18:27;12.10;;;10.90;;
16826;SDS011;8530;49.540;8.576;2023-09-08T03:20:54;13.27;;;11.50;;
16826;SDS011;8530;49.540;8.576;2023-09-08T03:23:21;12.93;;;11.70;;
16826;SDS011;8530;49.540;8.576;2023-09-08T03:25:49;13.10;;;11.80;;
16826;SDS011;8530;49.540;8.576;2023-09-08T03:28:16;12.93;;;11.57;;
16826;SDS011;8530;49.540;8.576;2023-09-08T03:30:43;13.67;;;12.27;;
16826;SDS011;8530;49.540;8.576;2023-09-08T03:33:09;10.93;;;9.93;;
16826;SDS011;8530;49.540;8.576;2023-09-08T03:35:36;13.13;;;11.83;;
16826;SDS011;8530;49.540;8.576;2023-09-08T03:38:03;12.57;;;11.30;;
16826;SDS011;8530;49.540;8.576;2023-09-08T03:40:30;12.93;;;11.63;;
16826;SDS011;8530;49.540;8.576;2023-09-08T03:42:58;13.40;;;11.03;;
16826;SDS011;8530;49.540;8.576;2023-09-08T03:45:25;14.27;;;11.13;;
16826;SDS011;8530;49.540;8.576;2023-09-08T03:47:51;18.03;;;10.53;;
16826;SDS011;8530;49.540;8.576;2023-09-08T03:50:18;12.90;;;11.60;;
16826;SDS011;8530;49.540;8.576;2023-09-08T03:52:45;15.23;;;11.10;;
16826;SDS011;8530;49.540;8.576;2023-09-08T03:55:11;12.07;;;10.77;;
16826;SDS011;8530;49.540;8.576;2023-09-08T03:57:38;11.33;;;10.10;;
16826;SDS011;8530;49.540;8.576;2023-09-08T04:00:07;13.60;;;11.33;;
16826;SDS011;8530;49.540;8.576;2023-09-08T04:02:36;11.90;;;10.60;;
16826;SDS011;8530;49.540;8.576;2023-09-08T04:05:03;11.70;;;10.60;;
16826;SDS011;8530;49.540;8.576;2023-09-08T04:07:31;11.80;;;10.70;;
16826;SDS011;8530;49.540;8.576;2023-09-08T04:09:57;13.80;;;11.40;;
16826;SDS011;8530;49.540;8.576;2023-09-08T04:12:24;16.90;;;12.43;;
16826;SDS011;8530;49.540;8.576;2023-09-08T04:14:51;13.10;;;11.40;;
16826;SDS011;8530;49.540;8.576;2023-09-08T04:17:19;17.97;;;12.77;;
16826;SDS011;8530;49.540;8.576;2023-09-08T04:19:45;12.40;;;11.10;;
16826;SDS011;8530;49.540;8.576;2023-09-08T04:22:12;12.90;;;11.70;;
16826;SDS011;8530;49.540;8.576;2023-09-08T04:24:39;11.13;;;10.03;;
16826;SDS011;8530;49.540;8.576;2023-09-08T04:27:06;14.70;;;11.37;;
16826;SDS011;8530;49.540;8.576;2023-09-08T04:29:34;12.77;;;10.13;;
16826;SDS011;8530;49.540;8.576;2023-09-08T04:32:00;13.83;;;10.77;;
16826;SDS011;8530;49.540;8.576;2023-09-08T04:34:35;12.50;;;10.47;;
16826;SDS011;8530;49.540;8.576;2023-09-08T04:37:02;12.13;;;10.37;;
16826;SDS011;8530;49.540;8.576;2023-09-08T04:39:29;16.73;;;12.60;;
16826;SDS011;8530;49.540;8.576;2023-09-08T04:41:56;15.33;;;12.03;;
16826;SDS011;8530;49.540;8.576;2023-09-08T04:44:22;15.43;;;11.97;;
16826;SDS011;8530;49.540;8.576;2023-09-08T04:46:49;13.53;;;11.00;;
16826;SDS011;8530;49.540;8.576;2023-09-08T04:49:17;11.40;;;10.37;;
16826;SDS011;8530;49.540;8.576;2023-09-08T04:51:45;13.83;;;11.40;;
16826;SDS011;8530;49.540;8.576;2023-09-08T04:54:12;12.83;;;11.63;;
16826;SDS011;8530;49.540;8.576;2023-09-08T04:56:39;12.90;;;10.70;;
16826;SDS011;8530;49.540;8.576;2023-09-08T04:59:05;11.57;;;10.30;;
16826;SDS011;8530;49.540;8.576;2023-09-08T05:01:32;11.67;;;10.50;;
16826;SDS011;8530;49.540;8.576;2023-09-08T05:04:02;14.80;;;12.70;;
16826;SDS011;8530;49.540;8.576;2023-09-08T05:06:29;12.23;;;10.93;;
16826;SDS011;8530;49.540;8.576;2023-09-08T05:08:58;11.50;;;10.33;;
16826;SDS011;8530;49.540;8.576;2023-09-08T05:11:25;13.00;;;11.70;;
16826;SDS011;8530;49.540;8.576;2023-09-08T05:13:52;13.13;;;11.73;;
16826;SDS011;8530;49.540;8.576;2023-09-08T05:16:19;14.27;;;12.50;;
16826;SDS011;8530;49.540;8.576;2023-09-08T05:19:01;16.50;;;11.03;;
16826;SDS011;8530;49.540;8.576;2023-09-08T05:21:28;13.47;;;11.73;;
16826;SDS011;8530;49.540;8.576;2023-09-08T05:23:54;12.00;;;10.63;;
16826;SDS011;8530;49.540;8.576;2023-09-08T05:26:23;14.50;;;13.00;;
16826;SDS011;8530;49.540;8.576;2023-09-08T05:28:49;17.13;;;11.87;;
16826;SDS011;8530;49.540;8.576;2023-09-08T05:31:16;12.10;;;10.80;;
16826;SDS011;8530;49.540;8.576;2023-09-08T05:33:43;13.23;;;11.13;;
16826;SDS011;8530;49.540;8.576;2023-09-08T05:36:09;14.50;;;13.00;;
16826;SDS011;8530;49.540;8.576;2023-09-08T05:38:36;14.80;;;12.57;;
16826;SDS011;8530;49.540;8.576;2023-09-08T05:41:03;15.23;;;11.90;;
16826;SDS011;8530;49.540;8.576;2023-09-08T05:43:31;13.03;;;11.63;;
16826;SDS011;8530;49.540;8.576;2023-09-08T05:45:57;15.70;;;11.47;;
16826;SDS011;8530;49.540;8.576;2023-09-08T05:48:24;15.33;;;11.60;;
16826;SDS011;8530;49.540;8.576;2023-09-08T05:50:51;17.57;;;11.23;;
16826;SDS011;8530;49.540;8.576;2023-09-08T05:53:18;11.23;;;10.03;;
16826;SDS011;8530;49.540;8.576;2023-09-08T05:55:44;13.00;;;11.60;;
16826;SDS011;8530;49.540;8.576;2023-09-08T05:58:11;19.33;;;12.20;;
16826;SDS011;8530;49.540;8.576;2023-09-08T06:00:39;14.10;;;11.93;;
16826;SDS011;8530;49.540;8.576;2023-09-08T06:03:07;11.73;;;10.53;;
16826;SDS011;8530;49.540;8.576;2023-09-08T06:05:33;16.50;;;10.57;;
16826;SDS011;8530;49.540;8.576;2023-09-08T06:08:00;12.07;;;10.87;;
16826;SDS011;8530;49.540;8.576;2023-09-08T06:10:27;12.33;;;9.90;;
16826;SDS011;8530;49.540;8.576;2023-09-08T06:12:55;16.87;;;10.20;;
16826;SDS011;8530;49.540;8.576;2023-09-08T06:15:22;11.03;;;8.80;;
16826;SDS011;8530;49.540;8.576;2023-09-08T06:17:50;9.53;;;8.20;;
16826;SDS011;8530;49.540;8.576;2023-09-08T06:20:17;9.80;;;8.47;;
16826;SDS011;8530;49.540;8.576;2023-09-08T06:22:43;9.70;;;7.90;;
16826;SDS011;8530;49.540;8.576;2023-09-08T06:25:10;9.70;;;7.60;;
16826;SDS011;8530;49.540;8.576;2023-09-08T06:27:37;8.53;;;7.57;;
16826;SDS011;8530;49.540;8.576;2023-09-08T06:30:05;9.05;;;7.53;;
16826;SDS011;8530;49.540;8.576;2023-09-08T06:32:32;18.35;;;6.80;;
16826;SDS011;8530;49.540;8.576;2023-09-08T06:35:00;12.52;;;7.18;;
16826;SDS011;8530;49.540;8.576;2023-09-08T06:37:27;8.55;;;6.47;;
16826;SDS011;8530;49.540;8.576;2023-09-08T06:39:54;8.45;;;7.43;;
16826;SDS011;8530;49.540;8.576;2023-09-08T06:42:21;7.55;;;6.80;;
16826;SDS011;8530;49.540;8.576;2023-09-08T06:44:47;9.30;;;5.85;;
16826;SDS011;8530;49.540;8.576;2023-09-08T06:47:14;8.80;;;6.85;;
16826;SDS011;8530;49.540;8.576;2023-09-08T06:49:41;11.50;;;6.03;;
16826;SDS011;8530;49.540;8.576;2023-09-08T06:52:09;7.90;;;6.38;;
16826;SDS011;8530;49.540;8.576;2023-09-08T06:54:35;9.60;;;5.43;;
16826;SDS011;8530;49.540;8.576;2023-09-08T06:57:02;9.48;;;5.72;;
16826;SDS011;8530;49.540;8.576;2023-09-08T06:59:29;10.55;;;6.18;;
16826;SDS011;8530;49.540;8.576;2023-09-08T07:01:56;9.18;;;6.63;;
16826;SDS011;8530;49.540;8.576;2023-09-08T07:04:23;12.20;;;6.38;;
16826;SDS011;8530;49.540;8.576;2023-09-08T07:06:50;6.97;;;5.93;;
16826;SDS011;8530;49.540;8.576;2023-09-08T07:09:20;19.40;;;6.38;;
16826;SDS011;8530;49.540;8.576;2023-09-08T07:11:47;6.07;;;5.47;;
16826;SDS011;8530;49.540;8.576;2023-09-08T07:14:14;6.57;;;5.97;;
16826;SDS011;8530;49.540;8.576;2023-09-08T07:16:41;6.55;;;5.75;;
16826;SDS011;8530;49.540;8.576;2023-09-08T07:19:07;5.65;;;5.15;;
16826;SDS011;8530;49.540;8.576;2023-09-08T07:21:34;10.75;;;5.18;;
16826;SDS011;8530;49.540;8.576;2023-09-08T07:24:01;16.38;;;4.95;;
16826;SDS011;8530;49.540;8.576;2023-09-08T07:26:29;7.75;;;5.30;;
16826;SDS011;8530;49.540;8.576;2023-09-08T07:28:55;6.22;;;5.57;;
16826;SDS011;8530;49.540;8.576;2023-09-08T07:31:22;9.25;;;5.10;;
16826;SDS011;8530;49.540;8.576;2023-09-08T07:33:49;7.47;;;5.63;;
16826;SDS011;8530;49.540;8.576;2023-09-08T07:36:16;6.68;;;4.90;;
16826;SDS011;8530;49.540;8.576;2023-09-08T07:38:42;11.52;;;5.80;;
16826;SDS011;8530;49.540;8.576;2023-09-08T07:41:09;5.53;;;4.57;;
16826;SDS011;8530;49.540;8.576;2023-09-08T07:43:38;5.78;;;5.15;;
16826;SDS011;8530;49.540;8.576;2023-09-08T07:46:05;7.15;;;5.25;;
16826;SDS011;8530;49.540;8.576;2023-09-08T07:48:32;7.75;;;4.90;;
16826;SDS011;8530;49.540;8.576;2023-09-08T07:50:59;9.20;;;5.47;;
16826;SDS011;8530;49.540;8.576;2023-09-08T07:53:26;8.57;;;5.68;;
16826;SDS011;8530;49.540;8.576;2023-09-08T07:55:52;11.13;;;5.65;;
16826;SDS011;8530;49.540;8.576;2023-09-08T07:58:19;9.90;;;5.15;;
16826;SDS011;8530;49.540;8.576;2023-09-08T08:00:48;6.05;;;4.47;;
16826;SDS011;8530;49.540;8.576;2023-09-08T08:03:15;4.75;;;4.35;;
16826;SDS011;8530;49.540;8.576;2023-09-08T08:05:42;6.60;;;4.43;;
16826;SDS011;8530;49.540;8.576;2023-09-08T08:08:09;7.60;;;4.43;;
16826;SDS011;8530;49.540;8.576;2023-09-08T08:10:35;5.93;;;4.05;;
16826;SDS011;8530;49.540;8.576;2023-09-08T08:13:02;5.50;;;4.65;;
16826;SDS011;8530;49.540;8.576;2023-09-08T08:15:35;4.57;;;4.03;;
16826;SDS011;8530;49.540;8.576;2023-09-08T08:18:04;4.63;;;4.20;;
16826;SDS011;8530;49.540;8.576;2023-09-08T08:20:31;6.75;;;4.68;;
16826;SDS011;8530;49.540;8.576;2023-09-08T08:22:59;6.18;;;4.82;;
16826;SDS011;8530;49.540;8.576;2023-09-08T08:25:27;7.72;;;5.80;;
16826;SDS011;8530;49.540;8.576;2023-09-08T08:27:53;4.60;;;4.18;;
16826;SDS011;8530;49.540;8.576;2023-09-08T08:30:21;5.18;;;4.40;;
16826;SDS011;8530;49.540;8.576;2023-09-08T08:32:48;7.25;;;4.97;;
16826;SDS011;8530;49.540;8.576;2023-09-08T08:35:17;7.35;;;4.80;;
16826;SDS011;8530;49.540;8.576;2023-09-08T08:37:44;9.70;;;4.28;;
16826;SDS011;8530;49.540;8.576;2023-09-08T08:40:11;8.38;;;3.92;;
16826;SDS011;8530;49.540;8.576;2023-09-08T08:42:37;6.78;;;4.85;;
16826;SDS011;8530;49.540;8.576;2023-09-08T08:45:05;10.70;;;5.43;;
16826;SDS011;8530;49.540;8.576;2023-09-08T08:47:33;8.02;;;5.50;;
16826;SDS011;8530;49.540;8.576;2023-09-08T08:50:00;6.32;;;4.95;;
16826;SDS011;8530;49.540;8.576;2023-09-08T08:52:29;8.43;;;5.32;;
16826;SDS011;8530;49.540;8.576;2023-09-08T08:54:56;5.88;;;5.13;;
16826;SDS011;8530;49.540;8.576;2023-09-08T08:57:24;6.53;;;4.93;;
16826;SDS011;8530;49.540;8.576;2023-09-08T08:59:52;6.25;;;5.65;;
16826;SDS011;8530;49.540;8.576;2023-09-08T09:02:19;8.15;;;4.90;;
16826;SDS011;8530;49.540;8.576;2023-09-08T09:04:47;8.20;;;4.53;;
16826;SDS011;8530;49.540;8.576;2023-09-08T09:07:14;6.73;;;5.87;;
16826;SDS011;8530;49.540;8.576;2023-09-08T09:09:44;11.73;;;5.80;;
16826;SDS011;8530;49.540;8.576;2023-09-08T09:12:10;11.10;;;5.90;;
16826;SDS011;8530;49.540;8.576;2023-09-08T09:14:37;10.30;;;6.60;;
16826;SDS011;8530;49.540;8.576;2023-09-08T09:17:04;6.70;;;5.60;;
16826;SDS011;8530;49.540;8.576;2023-09-08T09:19:30;14.53;;;6.80;;
16826;SDS011;8530;49.540;8.576;2023-09-08T09:21:58;7.60;;;6.23;;
16826;SDS011;8530;49.540;8.576;2023-09-08T09:24:29;7.07;;;5.60;;
16826;SDS011;8530;49.540;8.576;2023-09-08T09:26:59;6.50;;;5.67;;
16826;SDS011;8530;49.540;8.576;2023-09-08T09:29:26;5.87;;;5.27;;
16826;SDS011;8530;49.540;8.576;2023-09-08T09:31:55;7.17;;;5.20;;
16826;SDS011;8530;49.540;8.576;2023-09-08T09:34:24;7.10;;;5.40;;
16826;SDS011;8530;49.540;8.576;2023-09-08T09:36:51;10.43;;;6.93;;
16826;SDS011;8530;49.540;8.576;2023-09-08T09:39:18;8.10;;;5.90;;
16826;SDS011;8530;49.540;8.576;2023-09-08T09:41:45;8.97;;;6.00;;
16826;SDS011;8530;49.540;8.576;2023-09-08T09:44:14;6.70;;;5.70;;
16826;SDS011;8530;49.540;8.576;2023-09-08T09:46:44;8.93;;;5.43;;
16826;SDS011;8530;49.540;8.576;2023-09-08T09:49:12;7.90;;;6.30;;
16826;SDS011;8530;49.540;8.576;2023-09-08T09:51:42;6.50;;;5.13;;
16826;SDS011;8530;49.540;8.576;2023-09-08T09:54:09;6.20;;;5.60;;
16826;SDS011;8530;49.540;8.576;2023-09-08T09:56:37;9.23;;;6.33;;
16826;SDS011;8530;49.540;8.576;2023-09-08T09:59:05;9.63;;;5.87;;
16826;SDS011;8530;49.540;8.576;2023-09-08T10:01:36;10.77;;;6.10;;
16826;SDS011;8530;49.540;8.576;2023-09-08T10:04:03;10.20;;;5.73;;
16826;SDS011;8530;49.540;8.576;2023-09-08T10:06:31;11.13;;;6.23;;
16826;SDS011;8530;49.540;8.576;2023-09-08T10:08:59;10.67;;;6.27;;
16826;SDS011;8530;49.540;8.576;2023-09-08T10:11:28;9.80;;;6.20;;
16826;SDS011;8530;49.540;8.576;2023-09-08T10:13:57;7.70;;;6.03;;
16826;SDS011;8530;49.540;8.576;2023-09-08T10:16:26;12.83;;;6.83;;
16826;SDS011;8530;49.540;8.576;2023-09-08T10:18:55;9.73;;;6.00;;
16826;SDS011;8530;49.540;8.576;2023-09-08T10:21:25;10.00;;;6.43;;
16826;SDS011;8530;49.540;8.576;2023-09-08T10:23:57;7.03;;;6.23;;
16826;SDS011;8530;49.540;8.576;2023-09-08T10:26:34;7.30;;;5.30;;
16826;SDS011;8530;49.540;8.576;2023-09-08T10:29:03;7.80;;;6.70;;
16826;SDS011;8530;49.540;8.576;2023-09-08T10:31:30;8.00;;;5.83;;
16826;SDS011;8530;49.540;8.576;2023-09-08T10:33:59;5.70;;;5.20;;
16826;SDS011;8530;49.540;8.576;2023-09-08T10:36:27;7.90;;;5.93;;
16826;SDS011;8530;49.540;8.576;2023-09-08T10:38:55;9.50;;;6.33;;
16826;SDS011;8530;49.540;8.576;2023-09-08T10:44:57;8.50;;;6.17;;
16826;SDS011;8530;49.540;8.576;2023-09-08T10:47:33;6.50;;;5.90;;
16826;SDS011;8530;49.540;8.576;2023-09-08T10:50:07;8.97;;;6.67;;
16826;SDS011;8530;49.540;8.576;2023-09-08T10:52:41;8.10;;;6.50;;
16826;SDS011;8530;49.540;8.576;2023-09-08T10:55:09;11.83;;;5.70;;
16826;SDS011;8530;49.540;8.576;2023-09-08T10:57:37;6.67;;;5.83;;
16826;SDS011;8530;49.540;8.576;2023-09-08T11:00:10;7.70;;;5.90;;
16826;SDS011;8530;49.540;8.576;2023-09-08T11:02:48;7.67;;;6.60;;
16826;SDS011;8530;49.540;8.576;2023-09-08T11:05:16;8.23;;;5.87;;
16826;SDS011;8530;49.540;8.576;2023-09-08T11:07:45;7.00;;;5.00;;
16826;SDS011;8530;49.540;8.576;2023-09-08T11:10:15;5.90;;;4.90;;
16826;SDS011;8530;49.540;8.576;2023-09-08T11:12:42;6.53;;;4.77;;
16826;SDS011;8530;49.540;8.576;2023-09-08T11:15:09;5.80;;;5.20;;
16826;SDS011;8530;49.540;8.576;2023-09-08T11:17:36;7.93;;;5.40;;
16826;SDS011;8530;49.540;8.576;2023-09-08T11:20:07;7.60;;;5.07;;
16826;SDS011;8530;49.540;8.576;2023-09-08T11:22:37;10.90;;;6.50;;
16826;SDS011;8530;49.540;8.576;2023-09-08T11:25:06;6.20;;;5.60;;
16826;SDS011;8530;49.540;8.576;2023-09-08T11:27:37;7.87;;;6.23;;
16826;SDS011;8530;49.540;8.576;2023-09-08T11:30:05;6.70;;;5.63;;
16826;SDS011;8530;49.540;8.576;2023-09-08T11:32:34;6.80;;;5.87;;
16826;SDS011;8530;49.540;8.576;2023-09-08T11:35:03;10.37;;;5.27;;
16826;SDS011;8530;49.540;8.576;2023-09-08T11:37:34;9.90;;;5.33;;
16826;SDS011;8530;49.540;8.576;2023-09-08T11:40:02;9.40;;;6.17;;
16826;SDS011;8530;49.540;8.576;2023-09-08T11:42:34;9.80;;;6.20;;
16826;SDS011;8530;49.540;8.576;2023-09-08T11:45:02;7.10;;;4.80;;
16826;SDS011;8530;49.540;8.576;2023-09-08T11:47:29;7.13;;;5.90;;
16826;SDS011;8530;49.540;8.576;2023-09-08T11:49:57;11.87;;;6.40;;
16826;SDS011;8530;49.540;8.576;2023-09-08T11:52:24;6.10;;;5.50;;
16826;SDS011;8530;49.540;8.576;2023-09-08T11:54:51;5.47;;;4.97;;
16826;SDS011;8530;49.540;8.576;2023-09-08T11:57:18;9.60;;;6.00;;
16826;SDS011;8530;49.540;8.576;2023-09-08T11:59:45;7.73;;;5.60;;
16826;SDS011;8530;49.540;8.576;2023-09-08T12:02:14;11.87;;;5.70;;
16826;SDS011;8530;49.540;8.576;2023-09-08T12:04:41;7.03;;;4.90;;
16826;SDS011;8530;49.540;8.576;2023-09-08T12:07:11;5.53;;;4.90;;
16826;SDS011;8530;49.540;8.576;2023-09-08T12:09:39;7.60;;;5.33;;
16826;SDS011;8530;49.540;8.576;2023-09-08T12:12:10;7.83;;;5.70;;
16826;SDS011;8530;49.540;8.576;2023-09-08T12:14:39;6.83;;;5.00;;
16826;SDS011;8530;49.540;8.576;2023-09-08T12:17:07;9.63;;;6.00;;
16826;SDS011;8530;49.540;8.576;2023-09-08T12:19:35;11.23;;;6.20;;
16826;SDS011;8530;49.540;8.576;2023-09-08T12:22:03;8.90;;;4.53;;
16826;SDS011;8530;49.540;8.576;2023-09-08T12:24:48;7.33;;;6.60;;
16826;SDS011;8530;49.540;8.576;2023-09-08T12:27:22;6.50;;;5.90;;
16826;SDS011;8530;49.540;8.576;2023-09-08T12:29:52;6.13;;;5.53;;
16826;SDS011;8530;49.540;8.576;2023-09-08T12:32:24;7.47;;;6.23;;
16826;SDS011;8530;49.540;8.576;2023-09-08T12:34:52;6.60;;;5.90;;
16826;SDS011;8530;49.540;8.576;2023-09-08T12:37:20;6.87;;;4.87;;
16826;SDS011;8530;49.540;8.576;2023-09-08T12:39:47;8.50;;;5.40;;
16826;SDS011;8530;49.540;8.576;2023-09-08T12:42:14;9.30;;;5.90;;
16826;SDS011;8530;49.540;8.576;2023-09-08T12:44:41;14.40;;;5.27;;
16826;SDS011;8530;49.540;8.576;2023-09-08T12:47:09;6.00;;;4.23;;
16826;SDS011;8530;49.540;8.576;2023-09-08T12:49:37;6.60;;;5.90;;
16826;SDS011;8530;49.540;8.576;2023-09-08T12:52:06;6.37;;;5.13;;
16826;SDS011;8530;49.540;8.576;2023-09-08T12:54:33;8.47;;;7.40;;
16826;SDS011;8530;49.540;8.576;2023-09-08T12:56:59;6.70;;;5.33;;
16826;SDS011;8530;49.540;8.576;2023-09-08T12:59:26;11.20;;;5.83;;
16826;SDS011;8530;49.540;8.576;2023-09-08T13:01:53;7.33;;;6.10;;
16826;SDS011;8530;49.540;8.576;2023-09-08T13:04:19;11.00;;;5.70;;
16826;SDS011;8530;49.540;8.576;2023-09-08T13:06:47;8.50;;;5.80;;
16826;SDS011;8530;49.540;8.576;2023-09-08T13:09:15;10.87;;;5.80;;
16826;SDS011;8530;49.540;8.576;2023-09-08T13:11:42;10.97;;;5.87;;
16826;SDS011;8530;49.540;8.576;2023-09-08T13:14:09;10.40;;;5.00;;
16826;SDS011;8530;49.540;8.576;2023-09-08T13:16:35;6.43;;;5.53;;
16826;SDS011;8530;49.540;8.576;2023-09-08T13:19:02;6.20;;;5.60;;
16826;SDS011;8530;49.540;8.576;2023-09-08T13:21:29;6.20;;;5.43;;
16826;SDS011;8530;49.540;8.576;2023-09-08T13:23:56;6.47;;;5.73;;
16826;SDS011;8530;49.540;8.576;2023-09-08T13:26:24;8.93;;;6.10;;
16826;SDS011;8530;49.540;8.576;2023-09-08T13:28:50;6.47;;;5.80;;
16826;SDS011;8530;49.540;8.576;2023-09-08T13:31:18;6.33;;;5.67;;
16826;SDS011;8530;49.540;8.576;2023-09-08T13:33:45;10.30;;;5.20;;
16826;SDS011;8530;49.540;8.576;2023-09-08T13:36:11;7.97;;;5.57;;
16826;SDS011;8530;49.540;8.576;2023-09-08T13:38:38;9.77;;;6.20;;
16826;SDS011;8530;49.540;8.576;2023-09-08T13:41:05;6.97;;;5.57;;
16826;SDS011;8530;49.540;8.576;2023-09-08T13:43:33;6.27;;;5.67;;
16826;SDS011;8530;49.540;8.576;2023-09-08T13:46:00;7.33;;;5.63;;
16826;SDS011;8530;49.540;8.576;2023-09-08T13:48:27;6.10;;;5.23;;
16826;SDS011;8530;49.540;8.576;2023-09-08T13:50:53;7.53;;;5.90;;
16826;SDS011;8530;49.540;8.576;2023-09-08T13:53:21;6.90;;;6.20;;
16826;SDS011;8530;49.540;8.576;2023-09-08T13:55:48;7.10;;;5.43;;
16826;SDS011;8530;49.540;8.576;2023-09-08T13:58:16;10.13;;;5.60;;
16826;SDS011;8530;49.540;8.576;2023-09-08T14:00:44;7.37;;;5.53;;
16826;SDS011;8530;49.540;8.576;2023-09-08T14:03:14;12.83;;;5.03;;
16826;SDS011;8530;49.540;8.576;2023-09-08T14:05:40;7.00;;;5.23;;
16826;SDS011;8530;49.540;8.576;2023-09-08T14:08:07;13.30;;;6.27;;
16826;SDS011;8530;49.540;8.576;2023-09-08T14:10:34;5.93;;;5.33;;
16826;SDS011;8530;49.540;8.576;2023-09-08T14:13:00;11.47;;;5.90;;
16826;SDS011;8530;49.540;8.576;2023-09-08T14:15:27;8.50;;;5.90;;
16826;SDS011;8530;49.540;8.576;2023-09-08T14:17:55;8.60;;;5.03;;
16826;SDS011;8530;49.540;8.576;2023-09-08T14:20:22;6.50;;;5.80;;
16826;SDS011;8530;49.540;8.576;2023-09-08T14:22:49;8.07;;;4.77;;
16826;SDS011;8530;49.540;8.576;2023-09-08T14:25:15;7.80;;;5.63;;
16826;SDS011;8530;49.540;8.576;2023-09-08T14:27:42;8.33;;;5.63;;
16826;SDS011;8530;49.540;8.576;2023-09-08T14:30:09;8.53;;;6.20;;
16826;SDS011;8530;49.540;8.576;2023-09-08T14:32:36;7.20;;;6.00;;
16826;SDS011;8530;49.540;8.576;2023-09-08T14:35:04;11.60;;;6.83;;
16826;SDS011;8530;49.540;8.576;2023-09-08T14:37:32;6.80;;;5.90;;
16826;SDS011;8530;49.540;8.576;2023-09-08T14:39:59;6.00;;;5.10;;
16826;SDS011;8530;49.540;8.576;2023-09-08T14:42:26;7.30;;;4.90;;
16826;SDS011;8530;49.540;8.576;2023-09-08T14:44:54;8.53;;;5.87;;
16826;SDS011;8530;49.540;8.576;2023-09-08T14:47:21;6.87;;;4.50;;
16826;SDS011;8530;49.540;8.576;2023-09-08T14:49:47;8.40;;;5.70;;
16826;SDS011;8530;49.540;8.576;2023-09-08T14:52:15;23.20;;;5.57;;
16826;SDS011;8530;49.540;8.576;2023-09-08T14:54:45;7.50;;;4.97;;
16826;SDS011;8530;49.540;8.576;2023-09-08T14:57:12;7.87;;;5.10;;
16826;SDS011;8530;49.540;8.576;2023-09-08T14:59:38;7.60;;;5.30;;
16826;SDS011;8530;49.540;8.576;2023-09-08T15:02:05;13.17;;;5.70;;